sensor_id;sensor_type;location;lat;lon;timestamp;P1;durP1;ratioP1;P2;durP2;ratioP2
15218;SDS011;15623;53.986;11.676;2023-05-16T00:02:29;10.93;;;9.83;;
15218;SDS011;15623;53.986;11.676;2023-05-16T00:04:58;10.40;;;9.60;;
15218;SDS011;15623;53.986;11.676;2023-05-16T00:07:35;10.00;;;8.90;;
15218;SDS011;15623;53.986;11.676;2023-05-16T00:10:05;14.10;;;9.30;;
15218;SDS011;15623;53.986;11.676;2023-05-16T00:12:44;10.00;;;9.07;;
15218;SDS011;15623;53.986;11.676;2023-05-16T00:15:26;9.93;;;8.93;;
15218;SDS011;15623;53.986;11.676;2023-05-16T00:17:58;9.73;;;8.70;;
15218;SDS011;15623;53.986;11.676;2023-05-16T00:23:12;10.60;;;9.60;;
15218;SDS011;15623;53.986;11.676;2023-05-16T00:28:13;10.40;;;9.30;;
15218;SDS011;15623;53.986;11.676;2023-05-16T00:30:42;10.30;;;9.40;;
15218;SDS011;15623;53.986;11.676;2023-05-16T00:33:11;11.47;;;10.37;;
15218;SDS011;15623;53.986;11.676;2023-05-16T00:35:50;11.43;;;9.90;;
15218;SDS011;15623;53.986;11.676;2023-05-16T00:40:49;12.67;;;10.00;;
15218;SDS011;15623;53.986;11.676;2023-05-16T00:43:30;12.43;;;11.00;;
15218;SDS011;15623;53.986;11.676;2023-05-16T00:46:02;11.70;;;10.67;;
15218;SDS011;15623;53.986;11.676;2023-05-16T00:51:17;12.93;;;11.63;;
15218;SDS011;15623;53.986;11.676;2023-05-16T00:54:00;14.07;;;11.97;;
15218;SDS011;15623;53.986;11.676;2023-05-16T00:56:42;14.93;;;12.80;;
15218;SDS011;15623;53.986;11.676;2023-05-16T00:59:09;14.03;;;12.63;;
15218;SDS011;15623;53.986;11.676;2023-05-16T01:01:44;14.03;;;12.57;;
15218;SDS011;15623;53.986;11.676;2023-05-16T01:04:20;14.40;;;12.90;;
15218;SDS011;15623;53.986;11.676;2023-05-16T01:06:49;17.30;;;13.07;;
15218;SDS011;15623;53.986;11.676;2023-05-16T01:09:28;15.97;;;13.50;;
15218;SDS011;15623;53.986;11.676;2023-05-16T01:12:06;15.40;;;13.80;;
15218;SDS011;15623;53.986;11.676;2023-05-16T01:14:45;15.17;;;13.63;;
15218;SDS011;15623;53.986;11.676;2023-05-16T01:22:45;17.20;;;13.50;;
15218;SDS011;15623;53.986;11.676;2023-05-16T01:25:26;19.00;;;14.07;;
15218;SDS011;15623;53.986;11.676;2023-05-16T01:33:12;15.00;;;13.27;;
15218;SDS011;15623;53.986;11.676;2023-05-16T01:35:50;16.67;;;12.27;;
15218;SDS011;15623;53.986;11.676;2023-05-16T01:38:24;15.13;;;12.40;;
15218;SDS011;15623;53.986;11.676;2023-05-16T01:40:54;13.90;;;12.23;;
15218;SDS011;15623;53.986;11.676;2023-05-16T01:43:32;13.20;;;11.80;;
15218;SDS011;15623;53.986;11.676;2023-05-16T01:46:08;14.73;;;12.77;;
15218;SDS011;15623;53.986;11.676;2023-05-16T01:51:18;16.73;;;12.00;;
15218;SDS011;15623;53.986;11.676;2023-05-16T01:53:47;14.00;;;12.20;;
15218;SDS011;15623;53.986;11.676;2023-05-16T01:56:16;16.80;;;11.53;;
15218;SDS011;15623;53.986;11.676;2023-05-16T01:58:44;17.53;;;11.03;;
15218;SDS011;15623;53.986;11.676;2023-05-16T02:01:13;12.47;;;11.27;;
15218;SDS011;15623;53.986;11.676;2023-05-16T02:03:52;12.50;;;11.20;;
15218;SDS011;15623;53.986;11.676;2023-05-16T02:06:23;12.73;;;10.10;;
15218;SDS011;15623;53.986;11.676;2023-05-16T02:08:57;13.70;;;10.37;;
15218;SDS011;15623;53.986;11.676;2023-05-16T02:11:25;11.57;;;10.37;;
15218;SDS011;15623;53.986;11.676;2023-05-16T02:13:53;11.60;;;10.40;;
15218;SDS011;15623;53.986;11.676;2023-05-16T02:16:20;12.27;;;10.20;;
15218;SDS011;15623;53.986;11.676;2023-05-16T02:18:48;13.30;;;10.00;;
15218;SDS011;15623;53.986;11.676;2023-05-16T02:21:30;11.03;;;9.93;;
15218;SDS011;15623;53.986;11.676;2023-05-16T02:23:58;13.67;;;10.00;;
15218;SDS011;15623;53.986;11.676;2023-05-16T02:26:27;13.97;;;9.43;;
15218;SDS011;15623;53.986;11.676;2023-05-16T02:28:55;13.40;;;9.00;;
15218;SDS011;15623;53.986;11.676;2023-05-16T02:31:28;10.03;;;9.10;;
15218;SDS011;15623;53.986;11.676;2023-05-16T02:36:47;10.30;;;9.30;;
15218;SDS011;15623;53.986;11.676;2023-05-16T02:39:15;11.30;;;8.30;;
15218;SDS011;15623;53.986;11.676;2023-05-16T02:41:44;8.47;;;7.70;;
15218;SDS011;15623;53.986;11.676;2023-05-16T02:44:13;14.67;;;8.10;;
15218;SDS011;15623;53.986;11.676;2023-05-16T02:46:40;10.17;;;7.97;;
15218;SDS011;15623;53.986;11.676;2023-05-16T02:49:23;8.90;;;8.10;;
15218;SDS011;15623;53.986;11.676;2023-05-16T02:51:57;8.90;;;7.80;;
15218;SDS011;15623;53.986;11.676;2023-05-16T02:54:25;8.73;;;7.50;;
15218;SDS011;15623;53.986;11.676;2023-05-16T02:57:00;10.20;;;7.97;;
15218;SDS011;15623;53.986;11.676;2023-05-16T02:59:30;8.37;;;7.57;;
15218;SDS011;15623;53.986;11.676;2023-05-16T03:01:58;12.37;;;7.70;;
15218;SDS011;15623;53.986;11.676;2023-05-16T03:04:33;9.87;;;7.80;;
15218;SDS011;15623;53.986;11.676;2023-05-16T03:07:16;11.13;;;8.07;;
15218;SDS011;15623;53.986;11.676;2023-05-16T03:12:38;8.40;;;7.50;;
15218;SDS011;15623;53.986;11.676;2023-05-16T03:15:07;7.77;;;7.10;;
15218;SDS011;15623;53.986;11.676;2023-05-16T03:17:45;8.50;;;7.67;;
15218;SDS011;15623;53.986;11.676;2023-05-16T03:20:29;7.80;;;7.00;;
15218;SDS011;15623;53.986;11.676;2023-05-16T03:23:04;10.40;;;7.40;;
15218;SDS011;15623;53.986;11.676;2023-05-16T03:25:33;7.27;;;6.77;;
15218;SDS011;15623;53.986;11.676;2023-05-16T03:28:01;9.57;;;7.00;;
15218;SDS011;15623;53.986;11.676;2023-05-16T03:30:32;7.33;;;6.53;;
15218;SDS011;15623;53.986;11.676;2023-05-16T03:35:37;6.73;;;6.13;;
15218;SDS011;15623;53.986;11.676;2023-05-16T03:43:25;5.87;;;5.43;;
15218;SDS011;15623;53.986;11.676;2023-05-16T03:45:54;7.00;;;5.80;;
15218;SDS011;15623;53.986;11.676;2023-05-16T03:48:23;5.33;;;4.83;;
15218;SDS011;15623;53.986;11.676;2023-05-16T03:53:30;5.93;;;4.43;;
15218;SDS011;15623;53.986;11.676;2023-05-16T03:58:41;4.97;;;3.37;;
15218;SDS011;15623;53.986;11.676;2023-05-16T04:01:10;8.27;;;2.77;;
15218;SDS011;15623;53.986;11.676;2023-05-16T04:03:42;9.33;;;3.00;;
15218;SDS011;15623;53.986;11.676;2023-05-16T04:06:09;6.67;;;2.97;;
15218;SDS011;15623;53.986;11.676;2023-05-16T04:08:39;4.37;;;2.80;;
15218;SDS011;15623;53.986;11.676;2023-05-16T04:11:11;9.63;;;2.37;;
15218;SDS011;15623;53.986;11.676;2023-05-16T04:13:46;5.37;;;2.20;;
15218;SDS011;15623;53.986;11.676;2023-05-16T04:18:57;7.30;;;2.60;;
15218;SDS011;15623;53.986;11.676;2023-05-16T04:21:26;9.63;;;2.50;;
15218;SDS011;15623;53.986;11.676;2023-05-16T04:23:55;7.70;;;2.70;;
15218;SDS011;15623;53.986;11.676;2023-05-16T04:26:23;7.27;;;2.50;;
15218;SDS011;15623;53.986;11.676;2023-05-16T04:28:56;5.73;;;2.23;;
15218;SDS011;15623;53.986;11.676;2023-05-16T04:31:25;5.83;;;2.30;;
15218;SDS011;15623;53.986;11.676;2023-05-16T04:33:52;5.83;;;2.73;;
15218;SDS011;15623;53.986;11.676;2023-05-16T04:36:21;7.63;;;2.70;;
15218;SDS011;15623;53.986;11.676;2023-05-16T04:38:50;5.97;;;2.50;;
15218;SDS011;15623;53.986;11.676;2023-05-16T04:41:24;7.73;;;3.20;;
15218;SDS011;15623;53.986;11.676;2023-05-16T04:43:53;6.57;;;2.90;;
15218;SDS011;15623;53.986;11.676;2023-05-16T04:46:26;8.53;;;2.90;;
15218;SDS011;15623;53.986;11.676;2023-05-16T04:48:54;5.73;;;2.57;;
15218;SDS011;15623;53.986;11.676;2023-05-16T04:51:36;6.93;;;2.20;;
15218;SDS011;15623;53.986;11.676;2023-05-16T04:54:16;4.93;;;2.27;;
15218;SDS011;15623;53.986;11.676;2023-05-16T04:56:43;4.50;;;2.00;;
15218;SDS011;15623;53.986;11.676;2023-05-16T04:59:10;7.30;;;2.27;;
15218;SDS011;15623;53.986;11.676;2023-05-16T05:01:46;5.27;;;2.10;;
15218;SDS011;15623;53.986;11.676;2023-05-16T05:04:21;9.43;;;2.80;;
15218;SDS011;15623;53.986;11.676;2023-05-16T05:12:15;4.40;;;2.20;;
15218;SDS011;15623;53.986;11.676;2023-05-16T05:14:42;8.07;;;2.53;;
15218;SDS011;15623;53.986;11.676;2023-05-16T05:19:42;12.93;;;2.50;;
15218;SDS011;15623;53.986;11.676;2023-05-16T05:24:49;9.40;;;2.70;;
15218;SDS011;15623;53.986;11.676;2023-05-16T05:27:19;8.60;;;2.53;;
15218;SDS011;15623;53.986;11.676;2023-05-16T05:29:46;9.87;;;3.00;;
15218;SDS011;15623;53.986;11.676;2023-05-16T05:32:14;10.13;;;2.70;;
15218;SDS011;15623;53.986;11.676;2023-05-16T05:34:51;6.90;;;2.63;;
15218;SDS011;15623;53.986;11.676;2023-05-16T05:37:25;9.87;;;3.07;;
15218;SDS011;15623;53.986;11.676;2023-05-16T05:39:53;8.10;;;2.60;;
15218;SDS011;15623;53.986;11.676;2023-05-16T05:42:35;9.77;;;2.43;;
15218;SDS011;15623;53.986;11.676;2023-05-16T05:45:20;12.60;;;3.13;;
15218;SDS011;15623;53.986;11.676;2023-05-16T05:48:00;11.33;;;2.80;;
15218;SDS011;15623;53.986;11.676;2023-05-16T05:50:40;10.13;;;2.67;;
15218;SDS011;15623;53.986;11.676;2023-05-16T05:55:53;9.90;;;2.87;;
15218;SDS011;15623;53.986;11.676;2023-05-16T05:58:26;8.17;;;2.50;;
15218;SDS011;15623;53.986;11.676;2023-05-16T06:00:54;12.20;;;2.50;;
15218;SDS011;15623;53.986;11.676;2023-05-16T06:03:22;6.73;;;2.03;;
15218;SDS011;15623;53.986;11.676;2023-05-16T06:06:00;7.53;;;2.80;;
15218;SDS011;15623;53.986;11.676;2023-05-16T06:11:17;6.13;;;2.20;;
15218;SDS011;15623;53.986;11.676;2023-05-16T06:13:59;9.03;;;2.23;;
15218;SDS011;15623;53.986;11.676;2023-05-16T06:16:31;12.57;;;2.33;;
15218;SDS011;15623;53.986;11.676;2023-05-16T06:19:00;9.70;;;2.87;;
15218;SDS011;15623;53.986;11.676;2023-05-16T06:21:38;6.53;;;2.00;;
15218;SDS011;15623;53.986;11.676;2023-05-16T06:24:16;8.17;;;2.27;;
15218;SDS011;15623;53.986;11.676;2023-05-16T06:26:45;8.73;;;2.20;;
15218;SDS011;15623;53.986;11.676;2023-05-16T06:29:15;7.70;;;2.40;;
15218;SDS011;15623;53.986;11.676;2023-05-16T06:31:44;7.73;;;2.40;;
15218;SDS011;15623;53.986;11.676;2023-05-16T06:34:14;9.20;;;2.60;;
15218;SDS011;15623;53.986;11.676;2023-05-16T06:36:49;8.17;;;2.20;;
15218;SDS011;15623;53.986;11.676;2023-05-16T06:39:17;5.67;;;2.10;;
15218;SDS011;15623;53.986;11.676;2023-05-16T06:41:44;9.73;;;2.30;;
15218;SDS011;15623;53.986;11.676;2023-05-16T06:44:22;10.17;;;2.50;;
15218;SDS011;15623;53.986;11.676;2023-05-16T06:46:56;10.00;;;2.67;;
15218;SDS011;15623;53.986;11.676;2023-05-16T06:49:24;11.90;;;2.13;;
15218;SDS011;15623;53.986;11.676;2023-05-16T06:51:57;8.23;;;2.33;;
15218;SDS011;15623;53.986;11.676;2023-05-16T06:54:42;7.23;;;2.17;;
15218;SDS011;15623;53.986;11.676;2023-05-16T06:57:10;7.27;;;2.30;;
15218;SDS011;15623;53.986;11.676;2023-05-16T06:59:39;9.23;;;2.30;;
15218;SDS011;15623;53.986;11.676;2023-05-16T07:02:16;7.47;;;2.17;;
15218;SDS011;15623;53.986;11.676;2023-05-16T07:07:22;5.63;;;2.10;;
15218;SDS011;15623;53.986;11.676;2023-05-16T07:12:28;6.97;;;1.90;;
15218;SDS011;15623;53.986;11.676;2023-05-16T07:14:55;6.20;;;2.10;;
15218;SDS011;15623;53.986;11.676;2023-05-16T07:17:27;4.43;;;1.67;;
15218;SDS011;15623;53.986;11.676;2023-05-16T07:20:02;8.30;;;2.30;;
15218;SDS011;15623;53.986;11.676;2023-05-16T07:22:31;8.40;;;2.10;;
15218;SDS011;15623;53.986;11.676;2023-05-16T07:25:00;7.83;;;2.83;;
15218;SDS011;15623;53.986;11.676;2023-05-16T07:27:28;11.60;;;2.40;;
15218;SDS011;15623;53.986;11.676;2023-05-16T07:29:56;11.43;;;2.30;;
15218;SDS011;15623;53.986;11.676;2023-05-16T07:32:25;12.13;;;2.40;;
15218;SDS011;15623;53.986;11.676;2023-05-16T07:37:58;7.87;;;2.40;;
15218;SDS011;15623;53.986;11.676;2023-05-16T07:40:27;7.23;;;1.80;;
15218;SDS011;15623;53.986;11.676;2023-05-16T07:42:57;14.30;;;2.53;;
15218;SDS011;15623;53.986;11.676;2023-05-16T07:45:26;6.50;;;2.10;;
15218;SDS011;15623;53.986;11.676;2023-05-16T07:50:32;9.90;;;2.20;;
15218;SDS011;15623;53.986;11.676;2023-05-16T07:53:02;9.73;;;2.00;;
15218;SDS011;15623;53.986;11.676;2023-05-16T07:55:36;9.13;;;2.30;;
15218;SDS011;15623;53.986;11.676;2023-05-16T07:58:04;13.53;;;2.30;;
15218;SDS011;15623;53.986;11.676;2023-05-16T08:00:32;11.50;;;2.17;;
15218;SDS011;15623;53.986;11.676;2023-05-16T08:03:13;10.73;;;2.40;;
15218;SDS011;15623;53.986;11.676;2023-05-16T08:05:42;6.67;;;1.77;;
15218;SDS011;15623;53.986;11.676;2023-05-16T08:08:13;8.27;;;2.20;;
15218;SDS011;15623;53.986;11.676;2023-05-16T08:10:40;7.43;;;1.83;;
15218;SDS011;15623;53.986;11.676;2023-05-16T08:13:08;6.03;;;1.90;;
15218;SDS011;15623;53.986;11.676;2023-05-16T08:15:42;8.47;;;1.70;;
15218;SDS011;15623;53.986;11.676;2023-05-16T08:18:25;4.83;;;1.63;;
15218;SDS011;15623;53.986;11.676;2023-05-16T08:20:54;6.43;;;2.00;;
15218;SDS011;15623;53.986;11.676;2023-05-16T08:25:56;3.47;;;1.60;;
15218;SDS011;15623;53.986;11.676;2023-05-16T08:28:25;7.30;;;1.93;;
15218;SDS011;15623;53.986;11.676;2023-05-16T08:30:52;6.07;;;1.80;;
15218;SDS011;15623;53.986;11.676;2023-05-16T08:33:21;7.65;;;1.73;;
15218;SDS011;15623;53.986;11.676;2023-05-16T08:35:53;6.47;;;1.67;;
15218;SDS011;15623;53.986;11.676;2023-05-16T08:38:21;8.93;;;1.75;;
15218;SDS011;15623;53.986;11.676;2023-05-16T08:40:50;6.68;;;1.77;;
15218;SDS011;15623;53.986;11.676;2023-05-16T08:43:26;5.00;;;1.55;;
15218;SDS011;15623;53.986;11.676;2023-05-16T08:45:58;5.80;;;1.58;;
15218;SDS011;15623;53.986;11.676;2023-05-16T08:48:27;4.70;;;1.95;;
15218;SDS011;15623;53.986;11.676;2023-05-16T08:51:08;4.57;;;1.83;;
15218;SDS011;15623;53.986;11.676;2023-05-16T08:53:37;5.47;;;1.83;;
15218;SDS011;15623;53.986;11.676;2023-05-16T08:56:08;5.97;;;1.60;;
15218;SDS011;15623;53.986;11.676;2023-05-16T08:58:43;4.85;;;1.50;;
15218;SDS011;15623;53.986;11.676;2023-05-16T09:03:47;4.07;;;1.50;;
15218;SDS011;15623;53.986;11.676;2023-05-16T09:06:16;6.30;;;1.70;;
15218;SDS011;15623;53.986;11.676;2023-05-16T09:08:44;4.03;;;1.77;;
15218;SDS011;15623;53.986;11.676;2023-05-16T09:11:28;5.85;;;1.90;;
15218;SDS011;15623;53.986;11.676;2023-05-16T09:16:30;7.22;;;1.85;;
15218;SDS011;15623;53.986;11.676;2023-05-16T09:19:02;3.88;;;1.65;;
15218;SDS011;15623;53.986;11.676;2023-05-16T09:21:29;7.20;;;1.95;;
15218;SDS011;15623;53.986;11.676;2023-05-16T09:24:06;6.75;;;1.85;;
15218;SDS011;15623;53.986;11.676;2023-05-16T09:26:36;5.00;;;1.77;;
15218;SDS011;15623;53.986;11.676;2023-05-16T09:29:11;4.43;;;1.60;;
15218;SDS011;15623;53.986;11.676;2023-05-16T09:31:49;7.32;;;1.73;;
15218;SDS011;15623;53.986;11.676;2023-05-16T09:34:24;7.05;;;1.65;;
15218;SDS011;15623;53.986;11.676;2023-05-16T09:36:53;3.80;;;2.00;;
15218;SDS011;15623;53.986;11.676;2023-05-16T09:39:23;5.32;;;1.42;;
15218;SDS011;15623;53.986;11.676;2023-05-16T09:44:32;5.90;;;1.70;;
15218;SDS011;15623;53.986;11.676;2023-05-16T09:47:01;6.68;;;1.98;;
15218;SDS011;15623;53.986;11.676;2023-05-16T09:49:44;4.85;;;1.60;;
15218;SDS011;15623;53.986;11.676;2023-05-16T09:52:12;4.00;;;1.50;;
15218;SDS011;15623;53.986;11.676;2023-05-16T09:54:40;4.45;;;1.80;;
15218;SDS011;15623;53.986;11.676;2023-05-16T09:57:17;3.95;;;1.75;;
15218;SDS011;15623;53.986;11.676;2023-05-16T09:59:47;3.47;;;1.77;;
15218;SDS011;15623;53.986;11.676;2023-05-16T10:02:35;13.98;;;1.50;;
15218;SDS011;15623;53.986;11.676;2023-05-16T10:05:11;4.70;;;1.67;;
15218;SDS011;15623;53.986;11.676;2023-05-16T10:07:50;3.95;;;1.40;;
15218;SDS011;15623;53.986;11.676;2023-05-16T10:10:21;4.32;;;1.60;;
15218;SDS011;15623;53.986;11.676;2023-05-16T10:12:50;7.00;;;1.40;;
15218;SDS011;15623;53.986;11.676;2023-05-16T10:15:19;2.38;;;1.40;;
15218;SDS011;15623;53.986;11.676;2023-05-16T10:17:50;4.18;;;1.50;;
15218;SDS011;15623;53.986;11.676;2023-05-16T10:20:28;3.47;;;1.50;;
15218;SDS011;15623;53.986;11.676;2023-05-16T10:22:58;2.83;;;1.45;;
15218;SDS011;15623;53.986;11.676;2023-05-16T10:25:35;4.85;;;1.40;;
15218;SDS011;15623;53.986;11.676;2023-05-16T10:28:15;2.70;;;1.55;;
15218;SDS011;15623;53.986;11.676;2023-05-16T10:30:43;6.30;;;1.48;;
15218;SDS011;15623;53.986;11.676;2023-05-16T10:36:06;4.22;;;1.55;;
15218;SDS011;15623;53.986;11.676;2023-05-16T10:38:34;3.03;;;1.63;;
15218;SDS011;15623;53.986;11.676;2023-05-16T10:41:04;3.85;;;1.30;;
15218;SDS011;15623;53.986;11.676;2023-05-16T10:46:04;2.78;;;1.42;;
15218;SDS011;15623;53.986;11.676;2023-05-16T10:48:35;3.92;;;1.60;;
15218;SDS011;15623;53.986;11.676;2023-05-16T10:54:03;3.42;;;1.65;;
15218;SDS011;15623;53.986;11.676;2023-05-16T10:56:33;5.60;;;1.80;;
15218;SDS011;15623;53.986;11.676;2023-05-16T10:59:02;5.03;;;1.60;;
15218;SDS011;15623;53.986;11.676;2023-05-16T11:01:33;3.50;;;1.58;;
15218;SDS011;15623;53.986;11.676;2023-05-16T11:04:09;4.57;;;1.60;;
15218;SDS011;15623;53.986;11.676;2023-05-16T11:09:31;3.63;;;1.40;;
15218;SDS011;15623;53.986;11.676;2023-05-16T11:12:01;4.72;;;1.40;;
15218;SDS011;15623;53.986;11.676;2023-05-16T11:14:34;3.17;;;1.58;;
15218;SDS011;15623;53.986;11.676;2023-05-16T11:17:10;2.63;;;1.30;;
15218;SDS011;15623;53.986;11.676;2023-05-16T11:24:58;3.83;;;1.40;;
15218;SDS011;15623;53.986;11.676;2023-05-16T11:27:28;3.58;;;1.27;;
15218;SDS011;15623;53.986;11.676;2023-05-16T11:30:10;5.00;;;1.95;;
15218;SDS011;15623;53.986;11.676;2023-05-16T11:32:40;3.65;;;1.35;;
15218;SDS011;15623;53.986;11.676;2023-05-16T11:35:15;3.70;;;1.10;;
15218;SDS011;15623;53.986;11.676;2023-05-16T11:37:46;3.97;;;1.10;;
15218;SDS011;15623;53.986;11.676;2023-05-16T11:40:29;2.55;;;1.02;;
15218;SDS011;15623;53.986;11.676;2023-05-16T11:42:58;2.90;;;1.10;;
15218;SDS011;15623;53.986;11.676;2023-05-16T11:45:34;4.70;;;1.17;;
15218;SDS011;15623;53.986;11.676;2023-05-16T11:48:04;2.92;;;1.20;;
15218;SDS011;15623;53.986;11.676;2023-05-16T11:50:34;3.35;;;1.42;;
15218;SDS011;15623;53.986;11.676;2023-05-16T11:55:36;5.13;;;1.40;;
15218;SDS011;15623;53.986;11.676;2023-05-16T12:00:56;2.75;;;1.30;;
15218;SDS011;15623;53.986;11.676;2023-05-16T12:03:24;3.00;;;1.20;;
15218;SDS011;15623;53.986;11.676;2023-05-16T12:05:54;2.40;;;1.20;;
15218;SDS011;15623;53.986;11.676;2023-05-16T12:08:27;4.28;;;1.60;;
15218;SDS011;15623;53.986;11.676;2023-05-16T12:13:34;5.30;;;1.40;;
15218;SDS011;15623;53.986;11.676;2023-05-16T12:16:04;3.10;;;1.55;;
15218;SDS011;15623;53.986;11.676;2023-05-16T12:18:42;3.60;;;1.35;;
15218;SDS011;15623;53.986;11.676;2023-05-16T12:21:15;5.65;;;1.85;;
15218;SDS011;15623;53.986;11.676;2023-05-16T12:26:30;5.10;;;1.98;;
15218;SDS011;15623;53.986;11.676;2023-05-16T12:31:51;2.97;;;1.60;;
15218;SDS011;15623;53.986;11.676;2023-05-16T12:34:21;7.45;;;1.85;;
15218;SDS011;15623;53.986;11.676;2023-05-16T12:36:53;4.05;;;1.45;;
15218;SDS011;15623;53.986;11.676;2023-05-16T12:39:35;4.10;;;1.80;;
15218;SDS011;15623;53.986;11.676;2023-05-16T12:42:05;4.45;;;1.48;;
15218;SDS011;15623;53.986;11.676;2023-05-16T12:44:33;3.80;;;1.40;;
15218;SDS011;15623;53.986;11.676;2023-05-16T12:47:16;3.95;;;1.77;;
15218;SDS011;15623;53.986;11.676;2023-05-16T12:49:45;4.85;;;1.70;;
15218;SDS011;15623;53.986;11.676;2023-05-16T12:52:16;4.50;;;1.60;;
15218;SDS011;15623;53.986;11.676;2023-05-16T12:54:50;3.28;;;1.70;;
15218;SDS011;15623;53.986;11.676;2023-05-16T12:57:26;4.18;;;1.38;;
15218;SDS011;15623;53.986;11.676;2023-05-16T12:59:56;3.38;;;1.20;;
15218;SDS011;15623;53.986;11.676;2023-05-16T13:02:25;3.80;;;1.60;;
15218;SDS011;15623;53.986;11.676;2023-05-16T13:04:53;5.53;;;1.50;;
15218;SDS011;15623;53.986;11.676;2023-05-16T13:10:24;4.03;;;1.50;;
15218;SDS011;15623;53.986;11.676;2023-05-16T13:12:53;5.43;;;1.70;;
15218;SDS011;15623;53.986;11.676;2023-05-16T13:15:23;6.57;;;1.83;;
15218;SDS011;15623;53.986;11.676;2023-05-16T13:20:26;8.02;;;1.90;;
15218;SDS011;15623;53.986;11.676;2023-05-16T13:22:55;5.90;;;1.85;;
15218;SDS011;15623;53.986;11.676;2023-05-16T13:25:27;9.10;;;2.42;;
15218;SDS011;15623;53.986;11.676;2023-05-16T13:27:55;5.55;;;1.52;;
15218;SDS011;15623;53.986;11.676;2023-05-16T13:30:23;5.22;;;1.75;;
15218;SDS011;15623;53.986;11.676;2023-05-16T13:32:57;5.57;;;1.80;;
15218;SDS011;15623;53.986;11.676;2023-05-16T13:38:06;7.50;;;1.80;;
15218;SDS011;15623;53.986;11.676;2023-05-16T13:40:41;7.60;;;1.70;;
15218;SDS011;15623;53.986;11.676;2023-05-16T13:43:09;6.25;;;1.48;;
15218;SDS011;15623;53.986;11.676;2023-05-16T13:45:42;3.63;;;1.13;;
15218;SDS011;15623;53.986;11.676;2023-05-16T13:48:11;4.50;;;1.38;;
15218;SDS011;15623;53.986;11.676;2023-05-16T13:50:46;4.38;;;1.40;;
15218;SDS011;15623;53.986;11.676;2023-05-16T13:53:20;5.30;;;1.75;;
15218;SDS011;15623;53.986;11.676;2023-05-16T13:55:53;3.72;;;1.40;;
15218;SDS011;15623;53.986;11.676;2023-05-16T13:58:21;4.03;;;1.42;;
15218;SDS011;15623;53.986;11.676;2023-05-16T14:00:56;8.18;;;1.83;;
15218;SDS011;15623;53.986;11.676;2023-05-16T14:03:33;4.72;;;1.17;;
15218;SDS011;15623;53.986;11.676;2023-05-16T14:06:01;4.15;;;1.20;;
15218;SDS011;15623;53.986;11.676;2023-05-16T14:08:34;2.83;;;1.10;;
15218;SDS011;15623;53.986;11.676;2023-05-16T14:11:11;2.75;;;1.05;;
15218;SDS011;15623;53.986;11.676;2023-05-16T14:13:39;6.65;;;1.40;;
15218;SDS011;15623;53.986;11.676;2023-05-16T14:18:47;2.20;;;1.02;;
15218;SDS011;15623;53.986;11.676;2023-05-16T14:21:15;4.60;;;1.40;;
15218;SDS011;15623;53.986;11.676;2023-05-16T14:26:31;4.40;;;1.77;;
15218;SDS011;15623;53.986;11.676;2023-05-16T14:29:04;4.70;;;1.35;;
15218;SDS011;15623;53.986;11.676;2023-05-16T14:34:02;5.50;;;1.23;;
15218;SDS011;15623;53.986;11.676;2023-05-16T14:36:30;4.43;;;0.98;;
15218;SDS011;15623;53.986;11.676;2023-05-16T14:38:59;2.50;;;1.00;;
15218;SDS011;15623;53.986;11.676;2023-05-16T14:41:27;3.08;;;1.10;;
15218;SDS011;15623;53.986;11.676;2023-05-16T14:43:59;2.58;;;1.23;;
15218;SDS011;15623;53.986;11.676;2023-05-16T14:46:27;3.97;;;1.00;;
15218;SDS011;15623;53.986;11.676;2023-05-16T14:48:54;3.05;;;0.88;;
15218;SDS011;15623;53.986;11.676;2023-05-16T14:51:27;4.05;;;0.90;;
15218;SDS011;15623;53.986;11.676;2023-05-16T14:53:55;3.28;;;1.10;;
15218;SDS011;15623;53.986;11.676;2023-05-16T14:56:24;3.55;;;1.20;;
15218;SDS011;15623;53.986;11.676;2023-05-16T14:58:53;2.05;;;1.05;;
15218;SDS011;15623;53.986;11.676;2023-05-16T15:01:32;3.88;;;1.23;;
15218;SDS011;15623;53.986;11.676;2023-05-16T15:03:59;3.78;;;1.90;;
15218;SDS011;15623;53.986;11.676;2023-05-16T15:06:33;6.00;;;1.50;;
15218;SDS011;15623;53.986;11.676;2023-05-16T15:09:04;4.57;;;1.38;;
15218;SDS011;15623;53.986;11.676;2023-05-16T15:11:33;4.63;;;1.58;;
15218;SDS011;15623;53.986;11.676;2023-05-16T15:14:10;4.45;;;1.10;;
15218;SDS011;15623;53.986;11.676;2023-05-16T15:16:49;4.35;;;1.60;;
15218;SDS011;15623;53.986;11.676;2023-05-16T15:19:17;2.63;;;1.50;;
15218;SDS011;15623;53.986;11.676;2023-05-16T15:21:45;5.45;;;1.50;;
15218;SDS011;15623;53.986;11.676;2023-05-16T15:29:45;5.20;;;1.40;;
15218;SDS011;15623;53.986;11.676;2023-05-16T15:32:16;2.80;;;1.07;;
15218;SDS011;15623;53.986;11.676;2023-05-16T15:37:27;2.37;;;1.20;;
15218;SDS011;15623;53.986;11.676;2023-05-16T15:40:00;5.23;;;1.03;;
15218;SDS011;15623;53.986;11.676;2023-05-16T15:42:39;2.87;;;1.43;;
15218;SDS011;15623;53.986;11.676;2023-05-16T15:45:09;1.53;;;0.97;;
15218;SDS011;15623;53.986;11.676;2023-05-16T15:47:41;3.03;;;1.20;;
15218;SDS011;15623;53.986;11.676;2023-05-16T15:50:09;3.60;;;1.23;;
15218;SDS011;15623;53.986;11.676;2023-05-16T15:52:43;2.97;;;1.23;;
15218;SDS011;15623;53.986;11.676;2023-05-16T15:55:12;3.65;;;1.23;;
15218;SDS011;15623;53.986;11.676;2023-05-16T15:57:39;2.70;;;1.07;;
15218;SDS011;15623;53.986;11.676;2023-05-16T16:00:08;3.33;;;1.30;;
15218;SDS011;15623;53.986;11.676;2023-05-16T16:02:43;1.73;;;1.03;;
15218;SDS011;15623;53.986;11.676;2023-05-16T16:05:13;5.38;;;1.35;;
15218;SDS011;15623;53.986;11.676;2023-05-16T16:07:40;4.80;;;1.37;;
15218;SDS011;15623;53.986;11.676;2023-05-16T16:10:21;4.37;;;1.30;;
15218;SDS011;15623;53.986;11.676;2023-05-16T16:12:58;11.03;;;1.70;;
15218;SDS011;15623;53.986;11.676;2023-05-16T16:15:37;5.47;;;1.70;;
15218;SDS011;15623;53.986;11.676;2023-05-16T16:18:09;4.73;;;1.60;;
15218;SDS011;15623;53.986;11.676;2023-05-16T16:20:39;4.73;;;1.50;;
15218;SDS011;15623;53.986;11.676;2023-05-16T16:23:08;3.97;;;1.53;;
15218;SDS011;15623;53.986;11.676;2023-05-16T16:25:35;2.90;;;1.30;;
15218;SDS011;15623;53.986;11.676;2023-05-16T16:28:09;4.00;;;1.50;;
15218;SDS011;15623;53.986;11.676;2023-05-16T16:30:36;6.43;;;2.20;;
15218;SDS011;15623;53.986;11.676;2023-05-16T16:33:20;3.47;;;1.43;;
15218;SDS011;15623;53.986;11.676;2023-05-16T16:35:55;3.43;;;1.40;;
15218;SDS011;15623;53.986;11.676;2023-05-16T16:38:29;4.90;;;1.23;;
15218;SDS011;15623;53.986;11.676;2023-05-16T16:40:58;4.70;;;1.50;;
15218;SDS011;15623;53.986;11.676;2023-05-16T16:46:11;5.40;;;1.30;;
15218;SDS011;15623;53.986;11.676;2023-05-16T16:48:42;2.90;;;1.13;;
15218;SDS011;15623;53.986;11.676;2023-05-16T16:53:42;5.00;;;1.40;;
15218;SDS011;15623;53.986;11.676;2023-05-16T16:56:17;2.57;;;1.30;;
15218;SDS011;15623;53.986;11.676;2023-05-16T16:58:47;5.47;;;1.47;;
15218;SDS011;15623;53.986;11.676;2023-05-16T17:01:26;4.67;;;1.83;;
15218;SDS011;15623;53.986;11.676;2023-05-16T17:03:58;4.83;;;1.70;;
15218;SDS011;15623;53.986;11.676;2023-05-16T17:06:31;3.30;;;1.50;;
15218;SDS011;15623;53.986;11.676;2023-05-16T17:08:58;3.87;;;2.37;;
15218;SDS011;15623;53.986;11.676;2023-05-16T17:11:29;3.77;;;1.80;;
15218;SDS011;15623;53.986;11.676;2023-05-16T17:16:49;4.20;;;1.87;;
15218;SDS011;15623;53.986;11.676;2023-05-16T17:19:22;7.83;;;2.17;;
15218;SDS011;15623;53.986;11.676;2023-05-16T17:21:50;4.07;;;1.60;;
15218;SDS011;15623;53.986;11.676;2023-05-16T17:24:17;6.03;;;1.73;;